Time;durP1;ratioP1;P1;durP2;ratioP2;P2;SDS_P1;SDS_P2;PMS_P1;PMS_P2;Temp;Humidity;BMP_temperature;BMP_pressure;BME280_temperature;BME280_humidity;BME280_pressure;Samples;Min_cycle;Max_cycle;Signal;HPM_P1;HPM_P2
2022/08/19 00:01:25;;;;;;;;;18.50;17.50;;;;;21.36;64.82;101393.53;5066330;28;49628;-63
2022/08/19 00:03:51;;;;;;;;;21.25;18.00;;;;;21.38;64.84;101394.38;5059004;28;49727;-67
2022/08/19 00:06:17;;;;;;;;;20.50;19.75;;;;;21.30;64.82;101387.38;5052587;28;49571;-66
2022/08/19 00:08:42;;;;;;;;;20.50;20.00;;;;;21.36;64.75;101398.00;5055194;28;49782;-66
2022/08/19 00:11:08;;;;;;;;;19.00;18.00;;;;;21.28;64.88;101389.19;5058227;28;49748;-66
2022/08/19 00:13:33;;;;;;;;;15.75;14.75;;;;;21.31;64.92;101394.47;5053694;28;49900;-66
2022/08/19 00:16:00;;;;;;;;;16.75;16.00;;;;;21.18;65.08;101387.53;5064712;28;49327;-67
2022/08/19 00:18:26;;;;;;;;;16.50;15.00;;;;;21.11;64.84;101378.69;5063979;28;49480;-66
2022/08/19 00:20:51;;;;;;;;;15.50;15.50;;;;;21.02;64.65;101365.47;5051638;28;49869;-66
2022/08/19 00:23:16;;;;;;;;;19.00;17.75;;;;;21.07;64.97;101377.84;5050451;28;51442;-66
2022/08/19 00:25:42;;;;;;;;;14.00;14.00;;;;;21.17;64.86;101401.78;5063020;28;49744;-66
2022/08/19 00:28:07;;;;;;;;;18.50;17.75;;;;;21.15;64.76;101410.69;5061582;28;49895;-66
2022/08/19 00:30:32;;;;;;;;;14.00;14.00;;;;;21.13;64.76;101406.25;5054486;28;49740;-66
2022/08/19 00:32:58;;;;;;;;;15.25;15.25;;;;;21.00;64.74;101394.84;5052312;28;49693;-64
2022/08/19 00:35:26;;;;;;;;;18.50;14.00;;;;;21.09;64.97;101408.09;5052952;28;49705;-67
2022/08/19 00:37:52;;;;;;;;;18.00;16.00;;;;;20.99;64.96;101393.09;5056801;28;50349;-65
2022/08/19 00:40:19;;;;;;;;;17.25;15.00;;;;;21.03;64.81;101410.81;5056264;28;49835;-65
2022/08/19 00:42:44;;;;;;;;;15.00;14.25;;;;;21.01;64.96;101403.75;5059300;28;49756;-68
2022/08/19 00:45:20;;;;;;;;;12.25;12.25;;;;;20.99;64.82;101408.22;5056642;28;49982;-65
2022/08/19 00:47:45;;;;;;;;;13.50;13.50;;;;;20.96;64.81;101401.13;5058605;28;49916;-65
2022/08/19 00:50:14;;;;;;;;;18.50;14.75;;;;;20.93;65.05;101406.50;5053991;28;51539;-65
2022/08/19 00:52:45;;;;;;;;;17.50;12.00;;;;;20.74;64.97;101376.47;5084111;27;49759;-67
2022/08/19 00:55:20;;;;;;;;;14.50;14.25;;;;;20.88;65.13;101405.69;5109902;27;49526;-65
2022/08/19 00:57:54;;;;;;;;;15.50;13.25;;;;;20.72;65.04;101388.06;5101292;27;49575;-64
2022/08/19 01:00:21;;;;;;;;;15.50;13.00;;;;;20.84;65.22;101403.91;5107980;27;50001;-64
2022/08/19 01:02:47;;;;;;;;;14.00;11.00;;;;;20.68;65.39;101379.22;5108504;27;49333;-64
2022/08/19 01:05:21;;;;;;;;;11.75;10.75;;;;;20.75;65.08;101401.34;5108697;27;49413;-64
2022/08/19 01:07:48;;;;;;;;;13.00;13.00;;;;;20.74;65.23;101395.13;5089438;27;49656;-65
2022/08/19 01:10:18;;;;;;;;;10.00;10.00;;;;;20.71;65.34;101399.63;5108933;27;49393;-66
2022/08/19 01:12:44;;;;;;;;;12.25;12.25;;;;;20.75;65.35;101412.03;5108448;27;49274;-64
2022/08/19 01:15:11;;;;;;;;;13.25;12.25;;;;;20.72;65.67;101407.63;5109230;27;49695;-64
2022/08/19 01:17:39;;;;;;;;;15.00;15.00;;;;;20.71;65.65;101410.31;5108709;27;50070;-68
2022/08/19 01:20:07;;;;;;;;;13.25;13.25;;;;;20.61;65.55;101390.84;5108466;27;49557;-67
2022/08/19 01:22:49;;;;;;;;;16.00;15.50;;;;;20.66;65.73;101401.50;5108529;27;49537;-64
2022/08/19 01:25:18;;;;;;;;;13.00;12.25;;;;;20.61;65.86;101400.63;5108172;27;49620;-64
2022/08/19 01:27:47;;;;;;;;;15.00;14.75;;;;;20.60;65.82;101405.09;5089818;27;49667;-65
2022/08/19 01:30:24;;;;;;;;;12.25;12.25;;;;;20.49;65.93;101398.97;5108918;27;50128;-64
2022/08/19 01:32:52;;;;;;;;;14.25;14.25;;;;;20.57;66.00;101419.34;5108695;27;50030;-64
2022/08/19 01:35:18;;;;;;;;;13.25;13.25;;;;;20.43;66.13;101404.38;5096545;27;49766;-64
2022/08/19 01:37:57;;;;;;;;;16.75;15.25;;;;;20.52;66.24;101426.50;5109143;27;49559;-64
2022/08/19 01:40:25;;;;;;;;;17.75;16.25;;;;;20.47;66.35;101416.78;5109164;27;49705;-64
2022/08/19 01:42:52;;;;;;;;;17.75;17.25;;;;;20.32;66.41;101404.44;5102735;27;49942;-64
2022/08/19 01:45:20;;;;;;;;;13.25;11.75;;;;;20.42;66.39;101415.91;5094926;27;49840;-64
2022/08/19 01:47:46;;;;;;;;;19.50;19.50;;;;;20.42;66.67;101419.44;5095373;27;50390;-63
2022/08/19 01:50:13;;;;;;;;;16.00;14.75;;;;;20.42;66.77;101424.78;5094980;27;50950;-64
2022/08/19 01:52:43;;;;;;;;;17.75;14.50;;;;;20.37;66.67;101423.06;5094854;27;49749;-65
2022/08/19 01:55:12;;;;;;;;;14.50;14.50;;;;;20.39;66.67;101422.16;5100133;27;49807;-65
2022/08/19 01:57:40;;;;;;;;;16.25;14.25;;;;;20.37;66.72;101423.97;5103390;27;50115;-66
2022/08/19 02:00:10;;;;;;;;;17.00;15.75;;;;;20.36;66.64;101429.28;5107222;27;50140;-65
2022/08/19 02:02:36;;;;;;;;;11.75;11.50;;;;;20.18;66.71;101398.34;5104516;27;49835;-68
2022/08/19 02:05:02;;;;;;;;;15.75;15.75;;;;;20.30;66.95;101427.56;5106323;27;49851;-65
2022/08/19 02:07:28;;;;;;;;;17.50;17.25;;;;;20.05;66.99;101386.88;5097609;27;49701;-65
2022/08/19 02:09:55;;;;;;;;;19.50;15.75;;;;;20.26;67.24;101420.47;5107597;27;49474;-65
2022/08/19 02:12:20;;;;;;;;;14.25;13.50;;;;;20.29;67.20;101424.00;5080876;27;49661;-68
2022/08/19 02:14:46;;;;;;;;;16.75;11.75;;;;;20.10;67.40;101401.06;5089023;27;49793;-69
2022/08/19 02:17:11;;;;;;;;;16.50;14.00;;;;;20.22;67.47;101418.75;5100959;27;49962;-67
2022/08/19 02:19:37;;;;;;;;;16.25;16.25;;;;;20.14;67.48;101409.91;5094077;27;57873;-66
2022/08/19 02:22:02;;;;;;;;;15.75;14.50;;;;;20.25;67.41;101421.38;5097439;27;57033;-66
2022/08/19 02:24:27;;;;;;;;;16.25;15.25;;;;;20.15;67.41;101409.91;5107778;27;49375;-65
2022/08/19 02:26:53;;;;;;;;;14.25;14.00;;;;;20.23;67.36;101415.19;5108469;27;49957;-65
2022/08/19 02:29:20;;;;;;;;;17.50;15.25;;;;;20.28;67.51;101419.59;5107058;27;50410;-65
2022/08/19 02:31:46;;;;;;;;;18.25;17.25;;;;;20.34;67.10;101423.97;5106769;27;49352;-69
2022/08/19 02:34:11;;;;;;;;;17.25;17.00;;;;;20.15;67.14;101393.03;5106811;27;49812;-64
2022/08/19 02:36:36;;;;;;;;;17.25;15.75;;;;;20.28;66.90;101424.03;5108038;27;49733;-66
2022/08/19 02:39:03;;;;;;;;;16.50;13.00;;;;;20.30;67.14;101435.56;5108417;27;49677;-69
2022/08/19 02:41:30;;;;;;;;;17.00;14.50;;;;;20.22;67.14;101418.75;5106375;27;49446;-66
2022/08/19 02:43:57;;;;;;;;;19.00;15.75;;;;;20.34;67.05;101428.41;5104912;27;49809;-69
2022/08/19 02:46:28;;;;;;;;;16.50;16.50;;;;;20.26;67.12;101415.13;5106615;27;49414;-67
2022/08/19 02:48:57;;;;;;;;;14.50;14.50;;;;;20.29;67.41;101432.00;5106728;27;50526;-68
2022/08/19 02:51:34;;;;;;;;;17.25;16.25;;;;;20.28;67.34;101421.38;5107100;27;49533;-65
2022/08/19 02:54:00;;;;;;;;;17.25;15.00;;;;;20.04;67.43;101382.47;5088185;27;49839;-68
2022/08/19 02:56:27;;;;;;;;;15.00;14.00;;;;;20.24;67.45;101432.94;5107800;27;49525;-67
2022/08/19 02:58:53;;;;;;;;;16.75;14.75;;;;;20.23;67.77;101424.06;5105587;27;50254;-67
2022/08/19 03:01:28;;;;;;;;;14.00;13.00;;;;;20.23;67.75;101428.50;5106657;27;49333;-65
2022/08/19 03:03:54;;;;;;;;;15.00;13.00;;;;;20.14;67.76;101407.25;5108497;27;49506;-68
2022/08/19 03:06:20;;;;;;;;;19.25;16.00;;;;;20.16;68.08;101424.13;5108473;27;49466;-67
2022/08/19 03:08:48;;;;;;;;;14.75;14.75;;;;;20.14;67.95;101424.13;5108259;27;49566;-64
2022/08/19 03:11:21;;;;;;;;;13.00;13.00;;;;;20.09;68.20;101428.63;5106270;27;49728;-65
2022/08/19 03:13:50;;;;;;;;;17.00;16.00;;;;;20.14;68.04;101440.13;5104155;27;49586;-64
2022/08/19 03:16:16;;;;;;;;;17.00;15.00;;;;;20.03;68.23;101418.00;5106257;27;49401;-64
2022/08/19 03:18:42;;;;;;;;;18.75;17.25;;;;;20.05;68.09;101423.31;5107023;27;49902;-64
2022/08/19 03:21:07;;;;;;;;;21.25;18.00;;;;;20.05;68.07;101410.88;5105455;27;49347;-64
2022/08/19 03:23:33;;;;;;;;;15.00;15.00;;;;;20.11;68.16;101409.97;5106782;27;49684;-64
2022/08/19 03:26:02;;;;;;;;;20.25;17.75;;;;;20.19;68.35;101421.44;5106778;27;49484;-64
2022/08/19 03:28:28;;;;;;;;;16.50;14.25;;;;;20.08;68.38;101407.31;5106623;27;49541;-65
2022/08/19 03:31:06;;;;;;;;;18.50;17.00;;;;;20.18;68.55;101431.22;5105198;27;49571;-64
2022/08/19 03:33:33;;;;;;;;;14.25;13.50;;;;;20.15;68.33;101422.34;5105874;27;49539;-64
2022/08/19 03:36:00;;;;;;;;;18.75;17.25;;;;;20.10;68.53;101411.75;5105971;27;49324;-64
2022/08/19 03:38:26;;;;;;;;;16.50;16.25;;;;;20.19;68.10;101418.78;5107369;27;49523;-64
2022/08/19 03:40:51;;;;;;;;;22.50;19.50;;;;;20.11;68.56;101415.28;5105409;27;49601;-65
2022/08/19 03:43:17;;;;;;;;;17.00;15.50;;;;;20.18;68.47;101420.56;5098696;27;62105;-64
2022/08/19 03:45:43;;;;;;;;;15.25;13.75;;;;;20.14;68.22;101417.91;5090630;27;50021;-64
2022/08/19 03:48:09;;;;;;;;;17.75;15.25;;;;;19.87;68.30;101371.94;5099624;27;60111;-64
2022/08/19 03:50:39;;;;;;;;;14.50;14.00;;;;;20.04;68.58;101394.91;5101456;27;49638;-64
2022/08/19 03:53:04;;;;;;;;;19.00;14.25;;;;;20.05;68.43;101394.00;5092645;27;49806;-64
2022/08/19 03:55:30;;;;;;;;;15.50;14.25;;;;;20.22;68.44;101427.63;5093046;27;50093;-64
2022/08/19 03:57:56;;;;;;;;;14.50;14.50;;;;;20.25;68.17;101422.25;5096957;27;49882;-63
2022/08/19 04:00:21;;;;;;;;;14.75;14.50;;;;;20.15;68.63;101417.03;5104389;27;49377;-64
2022/08/19 04:02:47;;;;;;;;;15.25;14.75;;;;;19.92;68.61;101379.91;5104989;27;49820;-64
2022/08/19 04:05:13;;;;;;;;;15.75;14.00;;;;;20.22;68.66;101421.41;5106297;27;49449;-64
2022/08/19 04:07:39;;;;;;;;;12.00;12.00;;;;;20.11;68.43;101394.84;5095250;27;49685;-64
2022/08/19 04:10:04;;;;;;;;;13.75;13.00;;;;;20.18;68.43;101420.56;5104684;27;49601;-64
2022/08/19 04:12:30;;;;;;;;;13.75;13.75;;;;;20.10;68.70;101409.06;5108556;27;49319;-64
2022/08/19 04:14:55;;;;;;;;;16.25;15.50;;;;;20.20;68.66;101424.09;5108468;27;49273;-64
2022/08/19 04:17:21;;;;;;;;;15.00;15.00;;;;;19.81;68.73;101348.03;5096382;27;49802;-64
2022/08/19 04:19:46;;;;;;;;;12.75;12.50;;;;;20.13;68.61;101394.81;5099929;27;49672;-65
2022/08/19 04:22:12;;;;;;;;;16.50;13.75;;;;;20.15;68.41;101399.25;5103407;27;49832;-64
2022/08/19 04:24:37;;;;;;;;;14.50;13.75;;;;;20.14;68.39;101399.25;5106639;27;49947;-66
2022/08/19 04:27:05;;;;;;;;;10.25;9.25;;;;;20.24;68.25;101412.50;5109648;27;49632;-64
2022/08/19 04:29:30;;;;;;;;;12.25;12.00;;;;;20.18;68.38;101414.34;5109269;27;49786;-68
2022/08/19 04:31:58;;;;;;;;;11.00;11.00;;;;;20.21;68.29;101419.66;5108392;27;49563;-64
2022/08/19 04:34:26;;;;;;;;;16.75;14.50;;;;;20.21;68.39;101431.19;5103449;27;49779;-64
2022/08/19 04:36:56;;;;;;;;;13.50;11.75;;;;;20.21;68.38;101423.19;5093171;27;50471;-65
2022/08/19 04:42:39;;;;;;;;;11.00;10.50;;;;;20.27;68.30;101427.59;5010794;28;49549;-64
2022/08/19 04:45:07;;;;;;;;;14.50;11.00;;;;;20.20;68.35;101420.53;5011171;28;49370;-64
2022/08/19 04:47:32;;;;;;;;;10.50;9.25;;;;;20.18;68.55;101412.56;5064865;27;49696;-64
2022/08/19 04:49:58;;;;;;;;;10.75;10.50;;;;;20.22;68.29;101419.63;5108428;27;54450;-64
2022/08/19 04:52:24;;;;;;;;;10.25;9.00;;;;;20.34;68.17;101444.41;5108894;27;49308;-64
2022/08/19 04:54:49;;;;;;;;;12.25;9.25;;;;;20.03;68.31;101394.03;5110201;27;49954;-64
2022/08/19 04:57:15;;;;;;;;;9.00;8.50;;;;;20.33;68.04;101445.31;5107995;27;63602;-64
2022/08/19 04:59:40;;;;;;;;;12.50;11.50;;;;;20.23;67.91;101437.38;5108997;27;49932;-64
2022/08/19 05:02:08;;;;;;;;;10.50;9.25;;;;;20.30;67.97;101444.44;5108651;27;49707;-64
2022/08/19 05:04:35;;;;;;;;;9.00;6.00;;;;;20.35;68.27;101448.84;5107698;27;49613;-64
2022/08/19 05:07:00;;;;;;;;;7.75;7.50;;;;;20.37;68.06;101449.75;5108440;27;50096;-64
2022/08/19 05:09:26;;;;;;;;;7.00;7.00;;;;;20.39;67.54;101455.94;5108771;27;49928;-64
2022/08/19 05:11:52;;;;;;;;;7.50;7.25;;;;;20.21;67.56;101432.97;5107316;27;49430;-64
2022/08/19 05:14:19;;;;;;;;;6.00;6.00;;;;;20.28;67.68;101432.03;5107208;27;49731;-65
2022/08/19 05:16:44;;;;;;;;;10.00;10.00;;;;;20.25;67.46;101432.91;5107051;27;49517;-65
2022/08/19 05:24:37;;;;;;;;;10.25;7.00;;;;;20.38;67.65;101452.38;5108322;27;50239;-65
2022/08/19 05:27:05;;;;;;;;;6.75;6.25;;;;;20.45;67.50;101453.22;5107824;27;49535;-64
2022/08/19 05:29:31;;;;;;;;;7.25;6.00;;;;;20.41;67.63;101447.00;5108635;27;49345;-64
2022/08/19 05:31:58;;;;;;;;;9.50;8.00;;;;;20.22;67.67;101424.06;5107530;27;49636;-63
2022/08/19 05:34:26;;;;;;;;;9.00;9.00;;;;;20.45;67.58;101462.13;5107742;27;49635;-64
2022/08/19 05:36:57;;;;;;;;;5.00;4.00;;;;;20.46;67.65;101457.66;5102089;27;49953;-68
2022/08/19 05:39:26;;;;;;;;;7.00;7.00;;;;;20.45;67.48;101462.13;5093040;27;49569;-64
2022/08/19 05:41:56;;;;;;;;;6.50;6.50;;;;;20.42;67.53;101448.78;5107581;27;49741;-64
2022/08/19 05:44:24;;;;;;;;;8.75;8.00;;;;;20.50;67.48;101457.63;5107543;27;49299;-64
2022/08/19 05:46:52;;;;;;;;;9.00;7.50;;;;;20.35;67.62;101424.84;5108355;27;49514;-64
2022/08/19 05:49:19;;;;;;;;;6.25;6.25;;;;;20.51;67.42;101462.06;5107887;27;49377;-63
2022/08/19 05:51:45;;;;;;;;;10.50;7.75;;;;;20.56;67.46;101468.25;5102619;27;49587;-70
2022/08/19 05:54:13;;;;;;;;;6.00;6.00;;;;;20.23;67.60;101412.50;5097956;27;50681;-69
2022/08/19 05:56:39;;;;;;;;;7.25;6.25;;;;;20.57;67.97;101471.81;5099497;27;49989;-66
2022/08/19 05:59:08;;;;;;;;;6.25;6.00;;;;;20.47;67.74;101452.34;5099972;27;49140;-72
2022/08/19 06:01:35;;;;;;;;;6.75;5.25;;;;;20.51;67.87;101450.53;5099414;27;50176;-76
2022/08/19 06:04:01;;;;;;;;;5.50;5.50;;;;;20.42;68.03;101430.13;5096929;27;49454;-74
2022/08/19 06:06:26;;;;;;;;;6.75;6.75;;;;;20.66;67.95;101466.41;5099998;27;49882;-78
2022/08/19 06:08:54;;;;;;;;;7.75;7.75;;;;;20.59;67.83;101454.00;5101629;27;49510;-73
2022/08/19 06:11:22;;;;;;;;;5.00;5.00;;;;;20.88;67.71;101480.41;5099159;27;49765;-74
2022/08/19 06:13:52;;;;;;;;;6.00;5.75;;;;;20.95;66.96;101489.25;5100484;27;49617;-74
2022/08/19 06:16:22;;;;;;;;;9.00;8.25;;;;;20.90;67.39;101462.59;5097665;27;50541;-73
2022/08/19 06:18:56;;;;;;;;;9.25;7.50;;;;;20.75;67.04;101422.69;5099886;27;49675;-73
2022/08/19 06:21:23;;;;;;;;;7.25;6.50;;;;;21.07;66.61;101483.75;5099219;27;49798;-72
2022/08/19 06:23:51;;;;;;;;;8.25;6.75;;;;;20.85;67.14;101435.06;5088814;27;49874;-75
2022/08/19 06:26:18;;;;;;;;;7.00;6.00;;;;;21.08;67.09;101467.72;5099417;27;50744;-81
2022/08/19 06:28:45;;;;;;;;;5.50;5.50;;;;;20.53;67.04;101379.38;5100084;27;50368;-79
2022/08/19 06:31:13;;;;;;;;;6.25;6.25;;;;;20.94;67.03;101475.00;5084775;27;49670;-73
2022/08/19 06:33:39;;;;;;;;;5.00;4.25;;;;;21.13;67.13;101495.25;5080134;27;49483;-70
2022/08/19 06:36:05;;;;;;;;;5.00;5.00;;;;;21.09;66.98;101479.28;5104782;27;50548;-71
2022/08/19 06:38:32;;;;;;;;;2.50;2.50;;;;;21.21;66.83;101486.25;5108332;27;49383;-72
2022/08/19 06:41:02;;;;;;;;;4.75;4.50;;;;;21.23;67.11;101484.44;5106094;27;49651;-71
2022/08/19 06:43:27;;;;;;;;;4.75;4.75;;;;;20.91;66.72;101420.75;5106523;27;49580;-74
2022/08/19 06:45:53;;;;;;;;;4.00;4.00;;;;;21.33;67.03;101470.16;5106645;27;49981;-78
2022/08/19 06:48:19;;;;;;;;;4.50;4.00;;;;;21.21;66.65;101451.53;5107515;27;50974;-76
2022/08/19 06:50:44;;;;;;;;;2.75;2.75;;;;;20.85;66.56;101401.25;5087755;27;49877;-75
2022/08/19 06:53:09;;;;;;;;;3.00;3.00;;;;;21.19;66.49;101440.00;5107257;27;49656;-72
2022/08/19 06:55:35;;;;;;;;;4.00;4.00;;;;;21.57;66.58;101490.31;5096321;27;50566;-75
2022/08/19 06:58:04;;;;;;;;;3.00;3.00;;;;;21.60;66.43;101492.94;5091534;27;49974;-73
2022/08/19 07:00:30;;;;;;;;;3.00;3.00;;;;;21.54;66.09;101483.22;5093732;27;49815;-74
2022/08/19 07:02:55;;;;;;;;;3.00;3.00;;;;;21.64;66.27;101498.22;5094095;27;49693;-72
2022/08/19 07:05:20;;;;;;;;;2.25;2.25;;;;;21.32;66.34;101461.22;5078140;27;50959;-73
2022/08/19 07:07:46;;;;;;;;;3.00;3.00;;;;;21.27;66.02;101420.34;5093385;27;49833;-73
2022/08/19 07:10:11;;;;;;;;;5.00;3.50;;;;;21.76;66.09;101505.19;5094355;27;49659;-71
2022/08/19 07:12:37;;;;;;;;;2.50;2.50;;;;;21.75;66.06;101507.88;5108665;27;49546;-76
2022/08/19 07:15:05;;;;;;;;;1.75;1.50;;;;;21.68;66.04;101501.72;5089439;27;50748;-72
2022/08/19 07:17:30;;;;;;;;;0.50;0.00;;;;;21.50;66.10;101453.88;5101485;27;49291;-71
2022/08/19 07:19:56;;;;;;;;;1.50;1.50;;;;;21.74;65.91;101485.63;5095430;27;49748;-75
2022/08/19 07:22:24;;;;;;;;;1.00;1.00;;;;;21.93;65.52;101516.53;5101842;27;49845;-75
2022/08/19 07:24:49;;;;;;;;;1.00;1.00;;;;;21.62;65.80;101446.59;5099598;27;50157;-72
2022/08/19 07:27:14;;;;;;;;;0.00;0.00;;;;;21.58;65.73;101441.31;5101151;27;49482;-74
2022/08/19 07:29:40;;;;;;;;;0.50;0.50;;;;;22.00;65.39;101511.97;5107312;27;49420;-75
2022/08/19 07:32:06;;;;;;;;;2.00;2.00;;;;;21.67;65.32;101455.44;5108880;27;49635;-71
2022/08/19 07:34:37;;;;;;;;;2.50;1.00;;;;;21.83;65.53;101488.19;5108805;27;49392;-71
2022/08/19 07:37:04;;;;;;;;;1.50;1.50;;;;;21.95;65.87;101505.81;5108508;27;49678;-68
2022/08/19 07:39:33;;;;;;;;;1.50;1.00;;;;;21.94;65.81;101515.63;5107251;27;49449;-70
2022/08/19 07:42:00;;;;;;;;;2.00;1.00;;;;;21.99;65.67;101507.53;5106311;27;49517;-68
2022/08/19 07:44:26;;;;;;;;;1.75;1.75;;;;;21.71;65.77;101450.91;5108267;27;49883;-68
2022/08/19 07:46:55;;;;;;;;;2.25;2.00;;;;;21.97;65.86;101493.31;5111069;27;49358;-69
2022/08/19 07:49:22;;;;;;;;;1.50;1.50;;;;;21.81;65.57;101459.69;5111108;27;49531;-67
2022/08/19 07:51:55;;;;;;;;;3.00;3.00;;;;;21.99;65.78;101480.81;5091535;27;49211;-68
2022/08/19 07:54:22;;;;;;;;;2.00;2.00;;;;;22.00;65.58;101474.53;5111720;27;49502;-73
2022/08/19 07:56:49;;;;;;;;;1.25;1.25;;;;;22.28;64.95;101501.78;5092532;27;49499;-67
2022/08/19 07:59:17;;;;;;;;;0.00;0.00;;;;;22.29;64.85;101498.19;5111328;27;49742;-68
2022/08/19 08:01:43;;;;;;;;;0.75;0.75;;;;;22.34;64.75;101484.75;5107173;27;49849;-68
2022/08/19 08:09:40;;;;;;;;;0.50;0.50;;;;;22.60;63.73;101493.25;5109024;27;49736;-72
2022/08/19 08:12:14;;;;;;;;;3.50;2.25;;;;;22.49;63.64;101473.81;5101958;27;49694;-74
2022/08/19 08:14:46;;;;;;;;;1.00;1.00;;;;;22.76;63.74;101508.09;5101039;27;49584;-70
2022/08/19 08:17:12;;;;;;;;;1.50;1.50;;;;;22.66;63.29;101487.75;5110701;27;49784;-71
2022/08/19 08:19:40;;;;;;;;;1.50;1.00;;;;;22.76;63.13;101497.41;5109946;27;49715;-71
2022/08/19 08:22:06;;;;;;;;;1.25;1.25;;;;;22.83;63.00;101512.44;5110138;27;49679;-71
2022/08/19 08:24:33;;;;;;;;;4.00;2.50;;;;;22.79;63.04;101505.41;5109797;27;49722;-69
2022/08/19 08:27:00;;;;;;;;;1.25;1.25;;;;;22.76;63.17;101492.03;5110874;27;49521;-71
2022/08/19 08:29:29;;;;;;;;;1.75;1.75;;;;;22.84;63.24;101516.03;5108897;27;49650;-74
2022/08/19 08:31:55;;;;;;;;;2.75;1.50;;;;;22.87;63.43;101523.13;5110465;27;49447;-71
2022/08/19 08:34:21;;;;;;;;;2.75;1.25;;;;;22.60;63.30;101454.91;5108998;27;49653;-70
2022/08/19 08:36:47;;;;;;;;;0.75;0.75;;;;;22.61;62.71;101470.91;5109157;27;49483;-76
2022/08/19 08:39:16;;;;;;;;;1.50;0.25;;;;;23.07;62.68;101515.63;5109995;27;49397;-71
2022/08/19 08:41:41;;;;;;;;;0.25;0.25;;;;;23.10;62.27;101518.25;5110238;27;49620;-72
2022/08/19 08:44:14;;;;;;;;;1.00;1.00;;;;;23.10;62.75;101512.88;5108374;27;50613;-71
2022/08/19 08:46:46;;;;;;;;;1.25;1.00;;;;;23.00;62.25;101490.75;5109286;27;49345;-75
2022/08/19 08:49:33;;;;;;;;;1.50;1.50;;;;;23.28;61.73;101522.38;5108777;27;49798;-76
2022/08/19 08:52:09;;;;;;;;;1.00;1.00;;;;;22.54;61.84;101405.03;5108800;27;49861;-82
2022/08/19 08:54:47;;;;;;;;;1.00;1.00;;;;;23.27;61.62;101494.69;5109425;27;50117;-74
2022/08/19 08:57:23;;;;;;;;;1.50;1.50;;;;;23.36;61.35;101499.00;5108469;27;49379;-75
2022/08/19 08:59:53;;;;;;;;;3.00;3.00;;;;;22.99;61.33;101438.13;5109145;27;49361;-72
2022/08/19 09:02:19;;;;;;;;;2.00;2.00;;;;;23.62;61.12;101519.91;5109824;27;49416;-70
2022/08/19 09:04:45;;;;;;;;;1.75;0.75;;;;;23.75;61.06;101518.75;5109300;27;49984;-69
2022/08/19 09:07:16;;;;;;;;;4.00;1.00;;;;;23.87;60.02;101514.91;5108960;27;49320;-68
2022/08/19 09:09:46;;;;;;;;;0.75;0.75;;;;;24.02;60.03;101516.34;5110251;27;49552;-68
2022/08/19 09:12:38;;;;;;;;;1.00;1.00;;;;;24.16;59.75;101514.25;5107301;27;49452;-68
2022/08/19 09:15:07;;;;;;;;;1.25;1.25;;;;;24.22;59.32;101493.53;5108696;27;50898;-70
2022/08/19 09:17:33;;;;;;;;;3.00;3.00;;;;;24.28;58.88;101506.75;5109572;27;49568;-69
2022/08/19 09:20:13;;;;;;;;;2.00;0.75;;;;;24.52;58.44;101510.69;5107802;27;49535;-69
2022/08/19 09:22:43;;;;;;;;;3.00;3.00;;;;;24.55;57.63;101513.28;5111166;27;49458;-71
2022/08/19 09:25:11;;;;;;;;;2.25;2.25;;;;;24.72;57.54;101507.50;5109837;27;50118;-69
2022/08/19 09:27:39;;;;;;;;;8.75;6.00;;;;;24.83;56.90;101516.16;5110137;27;49602;-79
2022/08/19 09:30:07;;;;;;;;;2.25;1.75;;;;;24.88;56.47;101507.09;5108951;27;49575;-77
2022/08/19 09:32:32;;;;;;;;;0.75;0.75;;;;;24.83;57.11;101488.44;5109679;27;49415;-72
2022/08/19 09:35:00;;;;;;;;;2.75;2.75;;;;;24.50;56.48;101448.09;5109457;27;49633;-72
2022/08/19 09:37:26;;;;;;;;;6.00;5.25;;;;;24.92;56.64;101506.97;5109393;27;49429;-71
2022/08/19 09:39:52;;;;;;;;;2.25;2.25;;;;;24.88;56.30;101477.53;5109058;27;49195;-69
2022/08/19 09:42:17;;;;;;;;;2.00;2.00;;;;;25.10;55.74;101497.56;5109822;27;49652;-68
2022/08/19 09:44:46;;;;;;;;;1.00;0.25;;;;;25.29;55.56;101504.19;5109872;27;49917;-76
2022/08/19 09:47:13;;;;;;;;;1.75;1.75;;;;;25.21;55.19;101491.91;5109242;27;49311;-81
2022/08/19 09:49:39;;;;;;;;;4.50;2.00;;;;;25.32;55.94;101489.78;5109528;27;49388;-70
2022/08/19 09:52:07;;;;;;;;;2.50;1.50;;;;;24.99;55.12;101409.16;5090283;27;49493;-72
2022/08/19 09:54:33;;;;;;;;;3.50;2.00;;;;;25.63;54.45;101489.75;5109029;27;50159;-71
2022/08/19 09:57:02;;;;;;;;;1.50;1.50;;;;;25.65;53.71;101501.34;5104929;27;49332;-70
2022/08/19 09:59:28;;;;;;;;;0.50;0.50;;;;;25.35;54.13;101473.56;5095424;27;50081;-71
2022/08/19 10:01:54;;;;;;;;;3.00;3.00;;;;;25.21;54.55;101451.59;5090701;27;50057;-72
2022/08/19 10:04:20;;;;;;;;;4.75;4.75;;;;;25.50;54.37;101483.88;5091398;27;49929;-70
2022/08/19 10:06:47;;;;;;;;;2.75;2.75;;;;;25.73;53.75;101493.97;5091750;27;49631;-69
2022/08/19 10:09:15;;;;;;;;;2.75;1.50;;;;;25.78;53.90;101483.06;5095694;27;50250;-69
2022/08/19 10:11:43;;;;;;;;;1.00;1.00;;;;;26.04;53.45;101509.13;5089807;27;49870;-77
2022/08/19 10:14:08;;;;;;;;;5.00;2.50;;;;;26.06;53.31;101473.22;5078176;27;50512;-69
2022/08/19 10:16:36;;;;;;;;;3.50;2.50;;;;;26.19;52.62;101498.78;5099931;27;49759;-70
2022/08/19 10:19:02;;;;;;;;;1.00;1.00;;;;;26.07;52.49;101466.91;5094136;27;49698;-78
2022/08/19 10:21:34;;;;;;;;;1.00;1.00;;;;;26.42;52.34;101489.97;5096345;27;49856;-69
2022/08/19 10:24:03;;;;;;;;;2.00;2.00;;;;;26.73;51.96;101497.91;5102569;27;50981;-71
2022/08/19 10:26:32;;;;;;;;;3.50;2.75;;;;;26.67;50.92;101465.78;5092812;27;49752;-72
2022/08/19 10:28:58;;;;;;;;;2.00;1.00;;;;;26.97;51.59;101493.47;5107403;27;49279;-71
2022/08/19 10:31:31;;;;;;;;;2.00;2.00;;;;;27.22;51.09;101484.53;5107924;27;49510;-73
2022/08/19 10:33:57;;;;;;;;;2.00;2.00;;;;;27.41;49.93;101479.28;5104278;27;51186;-74
2022/08/19 10:36:32;;;;;;;;;0.50;0.50;;;;;27.54;49.35;101461.72;5080197;27;49698;-81
2022/08/19 10:39:01;;;;;;;;;1.25;1.00;;;;;27.81;49.24;101487.66;5080055;27;49984;-78
2022/08/19 10:41:33;;;;;;;;;0.50;0.50;;;;;27.50;48.90;101452.88;5096775;27;49865;-72
2022/08/19 10:44:04;;;;;;;;;1.00;0.50;;;;;27.42;48.88;101454.13;5094349;27;49828;-72
2022/08/19 10:46:32;;;;;;;;;0.75;0.75;;;;;27.18;49.45;101482.88;5096576;27;49666;-71
2022/08/19 10:48:59;;;;;;;;;2.50;2.50;;;;;26.94;49.78;101487.31;5100591;27;49815;-74
2022/08/19 10:54:09;;;;;;;;;1.00;1.00;;;;;26.57;51.26;101491.28;5091118;27;51020;-69
2022/08/19 10:56:54;;;;;;;;;3.00;3.00;;;;;26.31;51.34;101461.63;5096569;27;49853;-69
2022/08/19 10:59:27;;;;;;;;;3.75;2.00;;;;;26.33;51.93;101482.16;5097576;27;49745;-77
2022/08/19 11:01:54;;;;;;;;;1.00;1.00;;;;;26.12;51.80;101464.03;5083401;27;49507;-69
2022/08/19 11:04:20;;;;;;;;;1.50;1.50;;;;;26.17;52.56;101481.81;5109138;27;50038;-69
2022/08/19 11:06:47;;;;;;;;;2.75;1.75;;;;;26.13;52.51;101490.00;5099287;27;50175;-69
2022/08/19 11:09:19;;;;;;;;;0.50;0.50;;;;;26.13;51.89;101473.88;5105655;27;49325;-67
2022/08/19 11:11:47;;;;;;;;;0.75;0.75;;;;;26.08;52.48;101470.47;5090825;27;49579;-69
2022/08/19 11:14:14;;;;;;;;;1.25;1.25;;;;;26.03;52.36;101475.09;5101267;27;50061;-68
2022/08/19 11:16:42;;;;;;;;;1.00;1.00;;;;;26.09;52.80;101475.78;5093225;27;49715;-68
2022/08/19 11:19:09;;;;;;;;;1.00;1.00;;;;;26.07;52.30;101474.97;5093469;27;49574;-67
2022/08/19 11:21:38;;;;;;;;;1.00;1.00;;;;;25.75;51.83;101440.13;5091163;27;50079;-68
2022/08/19 11:24:06;;;;;;;;;0.50;0.50;;;;;25.61;52.93;101427.09;5092876;27;49705;-68
2022/08/19 11:26:32;;;;;;;;;0.50;0.50;;;;;25.88;53.13;101474.66;5106077;27;49905;-67
2022/08/19 11:28:59;;;;;;;;;2.00;2.00;;;;;25.92;53.06;101476.31;5104613;27;49637;-67
2022/08/19 11:31:30;;;;;;;;;1.00;1.00;;;;;25.80;52.55;101470.47;5098185;27;49780;-67
2022/08/19 11:34:01;;;;;;;;;1.50;1.50;;;;;25.67;52.82;101473.50;5083220;27;51074;-73
2022/08/19 11:36:26;;;;;;;;;1.00;1.00;;;;;25.65;52.94;101467.25;5094211;27;49687;-70
2022/08/19 11:38:53;;;;;;;;;0.50;0.50;;;;;25.54;52.96;101453.25;5101439;27;49553;-75